Time;durP1;ratioP1;P1;durP2;ratioP2;P2;SDS_P1;SDS_P2;PMS_P1;PMS_P2;Temp;Humidity;BMP_temperature;BMP_pressure;BME280_temperature;BME280_humidity;BME280_pressure;Samples;Min_cycle;Max_cycle;Signal;HPM_P1;HPM_P2
2022/10/11 00:02:19;;;;;;;9.10;4.90;;;;;;;10.17;100.00;97001.19;10399600;28;20662;-82
2022/10/11 00:07:19;;;;;;;14.93;4.77;;;;;;;9.98;100.00;97002.13;10417535;28;20231;-81
2022/10/11 00:12:20;;;;;;;11.73;5.50;;;;;;;9.86;100.00;97013.75;10416080;28;20193;-82
2022/10/11 00:17:20;;;;;;;12.80;5.40;;;;;;;9.89;100.00;97020.50;10417089;28;20187;-82
2022/10/11 00:22:21;;;;;;;13.37;5.43;;;;;;;10.04;100.00;97029.50;10416429;28;20197;-82
2022/10/11 00:27:21;;;;;;;12.57;5.40;;;;;;;9.99;100.00;97034.38;10416965;28;20628;-82
2022/10/11 00:32:22;;;;;;;12.63;5.67;;;;;;;10.26;100.00;97040.56;10398725;28;20841;-82
2022/10/11 00:37:22;;;;;;;13.33;5.40;;;;;;;10.39;100.00;97051.53;10415092;28;20243;-82
2022/10/11 00:42:22;;;;;;;13.17;4.47;;;;;;;10.27;100.00;97056.13;10398427;28;20203;-82
2022/10/11 00:47:23;;;;;;;12.90;5.50;;;;;;;10.19;100.00;97061.28;10416401;28;20212;-81
2022/10/11 00:52:30;;;;;;;15.37;5.13;;;;;;;9.95;100.00;97065.25;10397955;28;20204;-81
2022/10/11 00:57:33;;;;;;;17.10;5.53;;;;;;;9.76;100.00;97060.06;10416144;28;20177;-81
2022/10/11 01:02:33;;;;;;;12.77;6.23;;;;;;;9.61;100.00;97068.34;10395857;28;20192;-81
2022/10/11 01:07:35;;;;;;;17.43;6.13;;;;;;;9.57;100.00;97066.16;10397312;28;20212;-81
2022/10/11 01:12:39;;;;;;;11.37;6.03;;;;;;;9.55;100.00;97078.56;10397279;28;20247;-81
2022/10/11 01:17:43;;;;;;;18.87;7.13;;;;;;;9.80;100.00;97083.19;10397485;28;20238;-81
2022/10/11 01:23:09;;;;;;;16.40;6.73;;;;;;;9.95;100.00;97082.72;10397108;28;20200;-81
2022/10/11 01:28:48;;;;;;;18.43;7.20;;;;;;;10.06;100.00;97092.19;10396681;28;20216;-82
2022/10/11 01:33:54;;;;;;;16.77;6.50;;;;;;;10.08;100.00;97096.31;10394633;28;20193;-82
2022/10/11 01:39:41;;;;;;;13.60;7.00;;;;;;;10.18;100.00;97093.66;10395501;28;20244;-81
2022/10/11 01:44:45;;;;;;;12.60;6.97;;;;;;;10.38;100.00;97098.84;10230421;29;20301;-81
2022/10/11 01:49:58;;;;;;;16.47;7.73;;;;;;;10.54;100.00;97096.41;10364036;28;20229;-81
2022/10/11 01:55:20;;;;;;;16.87;8.40;;;;;;;10.57;100.00;97097.91;10412599;28;20230;-81
2022/10/11 02:00:25;;;;;;;14.68;9.05;;;;;;;10.45;100.00;97103.34;10394394;28;20695;-81
2022/10/11 02:05:43;;;;;;;15.53;9.07;;;;;;;10.48;100.00;97110.09;10394349;28;20189;-81
2022/10/11 02:10:52;;;;;;;14.50;9.97;;;;;;;10.46;100.00;97114.63;10394282;28;20224;-81
2022/10/11 02:15:54;;;;;;;18.88;9.60;;;;;;;10.42;100.00;97121.97;10411769;28;20247;-81
2022/10/11 02:20:59;;;;;;;15.65;9.00;;;;;;;10.49;100.00;97114.34;10393720;28;20223;-81
2022/10/11 02:26:03;;;;;;;15.80;8.47;;;;;;;10.45;100.00;97124.28;10394107;28;20223;-81
2022/10/11 02:31:05;;;;;;;20.33;9.37;;;;;;;10.44;100.00;97121.81;10377270;28;20260;-82
2022/10/11 02:36:40;;;;;;;14.45;9.15;;;;;;;10.48;100.00;97121.38;10393171;28;20236;-82
2022/10/11 02:41:42;;;;;;;19.42;10.23;;;;;;;10.43;100.00;97123.63;10393482;28;20192;-81
2022/10/11 02:46:43;;;;;;;17.03;10.43;;;;;;;10.49;100.00;97133.53;10410447;28;20675;-82
2022/10/11 02:51:43;;;;;;;22.25;10.60;;;;;;;10.44;100.00;97135.72;10393014;28;20190;-81
2022/10/11 02:56:43;;;;;;;17.05;10.63;;;;;;;10.53;100.00;97144.53;10410216;28;20555;-82
2022/10/11 03:01:44;;;;;;;18.83;12.17;;;;;;;10.47;100.00;97155.59;10409291;28;20191;-81
2022/10/11 03:06:44;;;;;;;20.23;11.27;;;;;;;10.47;100.00;97151.16;10446375;28;20695;-81
2022/10/11 03:11:45;;;;;;;19.30;13.33;;;;;;;10.49;100.00;97151.00;10429848;28;20191;-81
2022/10/11 03:16:45;;;;;;;27.07;14.67;;;;;;;10.38;100.00;97165.13;10447075;28;20194;-81
2022/10/11 03:21:46;;;;;;;27.37;15.17;;;;;;;10.33;100.00;97173.41;10442519;28;20338;-80
2022/10/11 03:26:46;;;;;;;27.37;15.53;;;;;;;10.25;100.00;97186.38;10443719;28;20212;-80
2022/10/11 03:31:46;;;;;;;24.80;17.60;;;;;;;10.08;100.00;97194.97;10446862;28;20686;-79
2022/10/11 03:36:47;;;;;;;20.60;13.10;;;;;;;9.96;100.00;97205.59;10446703;28;20240;-78
2022/10/11 03:41:47;;;;;;;19.20;11.93;;;;;;;9.87;100.00;97219.50;10446865;28;20192;-77
2022/10/11 03:46:48;;;;;;;14.20;9.90;;;;;;;9.62;100.00;97226.16;10428433;28;20216;-77
2022/10/11 03:51:48;;;;;;;14.87;8.87;;;;;;;9.41;100.00;97227.09;10447246;28;20187;-77
2022/10/11 03:56:48;;;;;;;17.37;9.10;;;;;;;9.38;100.00;97244.84;10446216;28;20195;-77
2022/10/11 04:01:49;;;;;;;20.03;8.90;;;;;;;9.34;100.00;97248.69;10448027;28;20648;-78
2022/10/11 04:06:49;;;;;;;16.77;7.17;;;;;;;9.30;100.00;97257.78;10449481;28;20207;-77
2022/10/11 04:11:50;;;;;;;17.47;6.43;;;;;;;9.24;100.00;97265.19;10449983;28;20234;-77
2022/10/11 04:16:50;;;;;;;13.30;5.30;;;;;;;9.05;100.00;97270.34;10450005;28;20522;-78
2022/10/11 04:21:50;;;;;;;13.60;4.67;;;;;;;8.98;100.00;97271.88;10431633;28;20661;-78
2022/10/11 04:26:51;;;;;;;7.17;3.87;;;;;;;8.93;100.00;97278.31;10449527;28;20212;-78
2022/10/11 04:31:51;;;;;;;15.77;3.77;;;;;;;8.92;100.00;97287.09;10448154;28;20219;-78
2022/10/11 04:36:52;;;;;;;12.20;3.80;;;;;;;8.87;100.00;97276.22;10452766;28;20741;-78
2022/10/11 04:41:52;;;;;;;11.27;3.70;;;;;;;8.86;100.00;97281.56;10455824;28;20184;-78
2022/10/11 04:46:52;;;;;;;10.23;3.50;;;;;;;8.81;100.00;97289.00;10455932;28;20246;-78
2022/10/11 04:51:54;;;;;;;11.87;3.67;;;;;;;8.77;100.00;97291.00;10438295;28;20216;-78
2022/10/11 04:56:54;;;;;;;9.23;3.67;;;;;;;8.80;100.00;97292.56;10455614;28;20188;-78
2022/10/11 05:01:54;;;;;;;12.00;3.97;;;;;;;8.79;100.00;97302.19;10455890;28;20192;-78
2022/10/11 05:06:55;;;;;;;10.43;4.00;;;;;;;8.83;100.00;97300.94;10455814;28;20315;-78
2022/10/11 05:11:55;;;;;;;11.27;3.57;;;;;;;8.66;100.00;97312.81;10455229;28;20192;-79
2022/10/11 05:16:55;;;;;;;9.70;2.60;;;;;;;8.47;100.00;97318.78;10455478;28;20192;-79
2022/10/11 05:21:56;;;;;;;14.63;2.90;;;;;;;8.51;100.00;97320.16;10437303;28;20203;-79
2022/10/11 05:26:56;;;;;;;16.80;2.90;;;;;;;8.41;100.00;97316.66;10412301;28;20228;-79
2022/10/11 05:31:57;;;;;;;13.87;2.80;;;;;;;8.38;100.00;97330.78;10412186;28;20189;-79
2022/10/11 05:36:57;;;;;;;14.30;2.70;;;;;;;8.33;100.00;97334.72;10420445;28;20234;-80
2022/10/11 05:41:57;;;;;;;9.00;2.33;;;;;;;8.36;100.00;97337.06;10442943;28;20203;-79
2022/10/11 05:46:58;;;;;;;10.93;2.77;;;;;;;8.41;100.00;97355.81;10453635;28;20301;-79
2022/10/11 05:51:58;;;;;;;19.23;2.90;;;;;;;8.50;100.00;97364.69;10454091;28;20245;-79
2022/10/11 05:56:59;;;;;;;10.67;2.97;;;;;;;8.54;100.00;97369.50;10453368;28;20640;-79
2022/10/11 06:01:59;;;;;;;13.20;3.30;;;;;;;8.63;100.00;97370.53;10454014;28;20195;-79
2022/10/11 06:06:59;;;;;;;13.37;3.07;;;;;;;8.64;100.00;97376.63;10453765;28;20204;-80
2022/10/11 06:12:00;;;;;;;11.60;3.00;;;;;;;8.63;100.00;97378.38;10453655;28;20184;-80
2022/10/11 06:17:00;;;;;;;11.43;2.80;;;;;;;8.86;100.00;97386.09;10435543;28;20535;-80
2022/10/11 06:22:01;;;;;;;9.47;2.60;;;;;;;8.86;100.00;97386.09;10453172;28;20555;-79
2022/10/11 06:27:01;;;;;;;10.87;2.87;;;;;;;8.93;100.00;97393.28;10452630;28;20230;-80
2022/10/11 06:32:02;;;;;;;14.57;3.00;;;;;;;8.99;100.00;97393.72;10452345;28;20281;-79
2022/10/11 06:37:02;;;;;;;20.43;4.87;;;;;;;9.08;100.00;97398.16;10451899;28;20224;-80
2022/10/11 06:42:02;;;;;;;14.33;3.40;;;;;;;9.00;100.00;97406.63;10452872;28;20667;-80
2022/10/11 06:47:05;;;;;;;16.33;4.70;;;;;;;9.19;100.00;97400.69;10439339;28;20232;-80
2022/10/11 06:52:05;;;;;;;16.87;3.30;;;;;;;9.43;100.00;97405.63;10406754;28;20189;-80
2022/10/11 06:57:06;;;;;;;11.63;2.97;;;;;;;9.70;100.00;97412.03;10406725;28;20181;-80
2022/10/11 07:02:07;;;;;;;11.77;3.47;;;;;;;9.88;100.00;97409.59;10408248;28;20542;-81
2022/10/11 07:07:07;;;;;;;13.67;2.93;;;;;;;10.65;100.00;97401.94;10408182;28;20278;-81
2022/10/11 07:12:08;;;;;;;13.75;2.97;;;;;;;10.75;100.00;97407.16;10405404;28;20605;-81
2022/10/11 07:17:09;;;;;;;11.13;2.35;;;;;;;11.13;100.00;97405.41;10408045;28;20188;-81
2022/10/11 07:22:10;;;;;;;7.47;2.35;;;;;;;11.06;100.00;97413.84;10390150;28;20708;-82
2022/10/11 07:27:10;;;;;;;8.63;2.60;;;;;;;10.86;100.00;97417.50;10408318;28;20208;-81
2022/10/11 07:32:11;;;;;;;15.77;2.90;;;;;;;11.13;100.00;97415.91;10412640;28;20204;-84
2022/10/11 07:37:12;;;;;;;16.02;2.67;;;;;;;11.45;100.00;97412.06;10425562;28;20571;-82
2022/10/11 07:42:57;;;;;;;17.23;2.65;;;;;;;12.25;100.00;97381.66;10462172;28;20172;-83
2022/10/11 07:47:57;;;;;;;10.75;3.17;;;;;;;12.68;98.35;97379.19;10479978;28;20235;-81
2022/10/11 07:52:57;;;;;;;8.82;2.20;;;;;;;13.04;93.58;97363.31;10433333;28;20648;-81
2022/10/11 07:57:58;;;;;;;10.80;2.42;;;;;;;13.34;93.31;97379.63;10449765;28;20286;-81
2022/10/11 08:03:01;;;;;;;41.25;5.10;;;;;;;14.59;83.70;97322.56;10434473;28;20201;-82
2022/10/11 08:08:02;;;;;;;13.30;2.60;;;;;;;14.43;83.58;97344.47;10433556;28;20310;-82
2022/10/11 08:13:17;;;;;;;15.23;3.25;;;;;;;15.79;77.16;97310.28;10456420;28;20695;-85
2022/10/11 08:18:20;;;;;;;15.55;3.08;;;;;;;16.07;71.73;97267.50;10427103;28;20205;-83
2022/10/11 08:23:39;;;;;;;16.00;2.55;;;;;;;16.68;69.17;97272.72;10410817;28;20614;-85
2022/10/11 08:28:45;;;;;;;17.95;3.35;;;;;;;16.90;65.90;97234.78;10428044;28;20719;-85
2022/10/11 08:33:47;;;;;;;10.00;2.13;;;;;;;17.53;63.39;97233.47;10432299;28;20325;-85
2022/10/11 08:38:48;;;;;;;12.02;2.40;;;;;;;18.12;61.47;97225.28;10447482;28;20289;-83
2022/10/11 08:43:58;;;;;;;9.13;2.00;;;;;;;16.86;63.73;97253.81;10454542;28;20674;-81
2022/10/11 08:49:00;;;;;;;12.93;2.22;;;;;;;15.60;67.91;97304.41;10455020;28;20215;-82
2022/10/11 08:54:10;;;;;;;7.13;1.80;;;;;;;16.65;62.95;97234.22;10438608;28;20192;-84
2022/10/11 08:59:23;;;;;;;11.50;2.13;;;;;;;18.12;58.70;97197.97;10446173;28;20188;-85
2022/10/11 09:04:24;;;;;;;7.85;2.00;;;;;;;18.41;59.33;97234.09;10434723;28;20298;-85
2022/10/11 09:09:47;;;;;;;10.10;2.17;;;;;;;17.85;56.76;97186.28;10437491;28;20222;-82
2022/10/11 09:15:00;;;;;;;11.95;2.00;;;;;;;16.48;61.36;97238.84;10355832;28;20268;-84
2022/10/11 09:20:48;;;;;;;8.50;2.40;;;;;;;16.36;59.94;97205.94;10369789;28;20181;-81
2022/10/11 09:25:56;;;;;;;11.85;3.05;;;;;;;17.52;58.97;97226.53;10370505;28;20199;-81
2022/10/11 09:30:57;;;;;;;6.35;1.77;;;;;;;17.62;59.63;97248.25;10369627;28;20224;-80
2022/10/11 09:35:58;;;;;;;14.07;2.72;;;;;;;16.74;59.58;97229.66;10370946;28;20255;-80
2022/10/11 09:41:16;;;;;;;9.52;2.17;;;;;;;15.59;64.20;97284.28;10409698;28;20623;-80
2022/10/11 09:46:23;;;;;;;7.32;1.98;;;;;;;15.84;62.86;97265.69;10452680;28;20222;-80
2022/10/11 09:51:25;;;;;;;9.85;1.80;;;;;;;16.16;59.88;97222.31;10453158;28;20264;-83
2022/10/11 09:56:28;;;;;;;14.07;2.53;;;;;;;17.67;58.68;97240.53;10434214;28;20192;-81
2022/10/11 10:01:29;;;;;;;13.65;2.28;;;;;;;18.92;54.01;97173.75;10433183;28;20198;-79
2022/10/11 10:06:30;;;;;;;8.55;1.90;;;;;;;17.85;54.92;97173.84;10452324;28;20212;-82
2022/10/11 10:11:35;;;;;;;10.38;2.17;;;;;;;18.61;54.27;97185.63;10416958;28;20323;-80
2022/10/11 10:16:36;;;;;;;9.77;1.90;;;;;;;19.16;51.45;97148.53;10410079;28;20184;-80
2022/10/11 10:21:44;;;;;;;12.82;2.15;;;;;;;19.83;48.09;97088.31;10434276;28;20187;-80
2022/10/11 10:27:07;;;;;;;7.88;1.63;;;;;;;21.05;47.20;97130.31;10434148;28;20664;-80
2022/10/11 10:32:11;;;;;;;11.93;2.40;;;;;;;20.66;46.56;97105.53;10451949;28;20195;-79
2022/10/11 10:37:23;;;;;;;8.80;1.90;;;;;;;20.40;47.37;97122.34;10452271;28;20580;-80
2022/10/11 10:42:24;;;;;;;8.82;1.67;;;;;;;20.23;47.20;97127.31;10451213;28;20263;-80
2022/10/11 10:47:37;;;;;;;9.63;1.77;;;;;;;19.77;49.57;97161.72;10433763;28;20558;-79
2022/10/11 10:52:46;;;;;;;8.57;2.05;;;;;;;21.89;43.27;97087.53;10452128;28;20192;-79
2022/10/11 10:57:52;;;;;;;10.15;2.08;;;;;;;21.92;44.05;97108.41;10451883;28;20192;-79
2022/10/11 11:03:05;;;;;;;11.90;2.08;;;;;;;22.29;43.60;97113.81;10449445;28;20195;-77
2022/10/11 11:14:56;;;;;;;11.60;2.20;;;;;;;20.97;44.72;97101.28;10450001;28;20192;-79
2022/10/11 11:20:03;;;;;;;7.82;2.10;;;;;;;21.23;45.72;97136.81;10449441;28;20665;-78
2022/10/11 11:25:11;;;;;;;7.40;1.88;;;;;;;21.70;42.90;97084.81;10431970;28;20220;-80
2022/10/11 11:30:37;;;;;;;8.07;1.85;;;;;;;21.21;42.60;97054.41;10448805;28;20314;-76
2022/10/11 11:35:40;;;;;;;10.20;1.98;;;;;;;23.10;40.67;97077.13;10388406;28;20816;-77
2022/10/11 11:40:48;;;;;;;7.35;1.92;;;;;;;23.04;38.04;96999.69;10432496;28;20191;-78
2022/10/11 11:45:55;;;;;;;6.90;1.60;;;;;;;24.10;36.56;97002.44;10441759;28;20192;-78
2022/10/11 11:51:07;;;;;;;7.68;1.60;;;;;;;23.18;39.04;97041.22;10400762;28;20270;-77
2022/10/11 11:56:30;;;;;;;4.63;1.60;;;;;;;23.46;38.96;97056.63;10401679;28;20606;-78
2022/10/11 12:01:45;;;;;;;7.70;1.80;;;;;;;24.20;37.85;97045.47;10423255;28;20207;-79
2022/10/11 12:06:58;;;;;;;5.65;1.60;;;;;;;22.45;38.89;97003.00;10452945;28;20200;-77
2022/10/11 12:12:01;;;;;;;7.25;1.75;;;;;;;23.83;39.07;97067.13;10401723;28;20251;-76
2022/10/11 12:17:07;;;;;;;8.15;1.70;;;;;;;24.41;36.76;97021.81;10397137;28;20192;-77
2022/10/11 12:22:25;;;;;;;5.18;1.48;;;;;;;23.61;37.25;97007.22;10397919;28;20649;-76
2022/10/11 12:27:36;;;;;;;6.35;1.67;;;;;;;22.06;37.33;96952.50;10444125;28;20266;-75
2022/10/11 12:32:37;;;;;;;12.00;4.47;;;;;;;19.95;41.85;97004.22;10433960;28;20307;-78
2022/10/11 12:37:37;;;;;;;8.00;1.48;;;;;;;19.21;45.47;97083.13;10453754;28;20219;-76
2022/10/11 12:42:38;;;;;;;7.10;1.58;;;;;;;21.69;40.51;97048.50;10447261;28;20207;-76
2022/10/11 12:47:42;;;;;;;7.95;1.60;;;;;;;21.91;39.84;97030.25;10431206;28;20292;-76
2022/10/11 12:52:55;;;;;;;6.07;1.70;;;;;;;20.37;40.52;96997.69;10442783;28;20211;-74
2022/10/11 12:58:22;;;;;;;10.45;1.38;;;;;;;21.52;38.93;96991.47;10448327;28;20632;-75
2022/10/11 13:03:27;;;;;;;6.75;1.60;;;;;;;22.97;38.84;97048.72;10433554;28;20207;-75
2022/10/11 13:08:31;;;;;;;8.13;1.40;;;;;;;23.99;37.16;97030.84;10436616;28;20301;-76
2022/10/11 13:13:36;;;;;;;5.55;1.73;;;;;;;21.84;41.31;97069.50;10453734;28;20196;-74
2022/10/11 13:18:40;;;;;;;6.97;1.55;;;;;;;22.46;39.75;97041.97;10436773;28;20211;-77
2022/10/11 13:23:41;;;;;;;5.57;1.63;;;;;;;23.91;37.80;97055.28;10453020;28;20196;-76
2022/10/11 13:28:41;;;;;;;7.68;1.45;;;;;;;22.98;39.16;97062.88;10452861;28;20249;-77
2022/10/11 13:33:43;;;;;;;5.88;1.48;;;;;;;22.60;40.68;97088.84;10453487;28;20196;-75
2022/10/11 13:38:56;;;;;;;5.38;1.70;;;;;;;22.01;37.71;96987.06;10410872;28;20232;-77
2022/10/11 13:43:58;;;;;;;7.75;2.00;;;;;;;21.47;40.13;97036.56;10372117;28;20201;-77
2022/10/11 13:49:35;;;;;;;7.13;1.60;;;;;;;19.98;42.17;97028.75;10370566;28;20213;-77
2022/10/11 13:54:52;;;;;;;7.05;1.80;;;;;;;18.67;45.28;97074.19;10351870;28;20197;-76
2022/10/11 13:59:52;;;;;;;7.38;1.48;;;;;;;17.28;49.50;97139.31;10369342;28;20558;-76
2022/10/11 14:04:52;;;;;;;6.45;1.63;;;;;;;17.38;50.58;97169.94;10335440;28;20193;-75
2022/10/11 14:09:54;;;;;;;11.25;1.88;;;;;;;17.11;51.36;97182.91;10335155;28;20701;-78
2022/10/11 14:14:56;;;;;;;13.13;2.05;;;;;;;16.55;53.30;97201.91;10350760;28;20233;-79
2022/10/11 14:26:17;;;;;;;17.00;6.07;;;;;;;16.52;57.19;97269.25;10397319;28;20189;-77
2022/10/11 14:31:18;;;;;;;4.07;1.30;;;;;;;16.26;56.39;97248.47;10384338;28;20209;-77
2022/10/11 14:36:21;;;;;;;11.27;2.20;;;;;;;17.26;52.74;97202.22;10395377;28;20261;-77
2022/10/11 14:41:22;;;;;;;7.25;1.60;;;;;;;19.52;45.10;97092.34;10427565;28;20192;-77
2022/10/11 14:46:24;;;;;;;5.85;2.08;;;;;;;20.77;41.94;97064.09;10426885;28;20193;-78
2022/10/11 14:51:29;;;;;;;8.23;3.97;;;;;;;20.69;42.90;97083.81;10433426;28;20295;-75
2022/10/11 14:56:29;;;;;;;9.00;1.67;;;;;;;20.76;43.68;97107.72;10431726;28;20188;-76
2022/10/11 15:01:30;;;;;;;7.07;2.25;;;;;;;20.38;44.70;97116.44;10430904;28;20667;-77
2022/10/11 15:06:33;;;;;;;9.07;2.00;;;;;;;21.60;43.00;97121.81;10449224;28;20561;-77
2022/10/11 15:11:35;;;;;;;7.55;1.98;;;;;;;23.47;40.38;97121.63;10430179;28;20237;-76
2022/10/11 15:16:35;;;;;;;7.05;2.10;;;;;;;23.66;40.55;97119.66;10449323;28;20195;-77
2022/10/11 15:21:36;;;;;;;4.90;1.52;;;;;;;21.62;42.95;97106.41;10448012;28;20526;-79
2022/10/11 15:26:36;;;;;;;6.68;2.17;;;;;;;17.88;50.27;97175.31;10448418;28;20188;-77
2022/10/11 15:31:37;;;;;;;8.27;2.08;;;;;;;16.56;53.45;97217.59;10445497;28;20314;-78
2022/10/11 15:36:37;;;;;;;8.23;1.60;;;;;;;15.40;57.46;97264.41;10428831;28;20246;-76
2022/10/11 15:41:38;;;;;;;8.07;1.45;;;;;;;13.46;61.78;97311.72;10408222;28;20196;-78
2022/10/11 15:46:40;;;;;;;8.00;2.22;;;;;;;12.99;63.31;97326.97;10415619;28;20298;-78
2022/10/11 15:51:40;;;;;;;4.75;1.67;;;;;;;12.26;68.88;97403.47;10423325;28;20265;-77
2022/10/11 15:56:41;;;;;;;14.45;2.47;;;;;;;10.05;75.95;97452.59;10416817;28;20664;-78
2022/10/11 16:01:42;;;;;;;10.93;1.85;;;;;;;9.66;79.82;97444.63;10424362;28;20545;-78
2022/10/11 16:06:42;;;;;;;14.20;3.33;;;;;;;8.35;88.87;97440.69;10426042;28;20665;-78
2022/10/11 16:11:42;;;;;;;85.47;32.70;;;;;;;8.33;96.10;97449.56;10412505;28;20266;-78
2022/10/11 16:16:43;;;;;;;20.27;13.47;;;;;;;8.27;96.51;97444.84;10389788;28;20192;-79
2022/10/11 16:21:43;;;;;;;17.90;8.10;;;;;;;7.82;100.00;97459.66;10406500;28;20196;-80
2022/10/11 16:26:43;;;;;;;24.27;13.87;;;;;;;7.58;100.00;97469.41;10407631;28;20660;-79
2022/10/11 16:31:44;;;;;;;12.53;5.83;;;;;;;7.31;100.00;97481.84;10412404;28;20581;-79
2022/10/11 16:36:44;;;;;;;8.97;4.00;;;;;;;7.38;100.00;97486.59;10397459;28;20232;-79
2022/10/11 16:41:45;;;;;;;11.70;3.83;;;;;;;7.09;100.00;97487.84;10421440;28;20216;-78
2022/10/11 16:46:47;;;;;;;11.20;4.03;;;;;;;6.87;100.00;97499.03;10413289;28;20267;-78
2022/10/11 16:51:49;;;;;;;14.03;4.53;;;;;;;6.83;100.00;97504.59;10413115;28;20251;-79
2022/10/11 16:56:49;;;;;;;12.17;3.57;;;;;;;6.71;100.00;97507.16;10410332;28;20195;-78
2022/10/11 17:01:50;;;;;;;16.20;4.73;;;;;;;6.47;100.00;97501.97;10410281;28;20187;-79
2022/10/11 17:06:50;;;;;;;18.03;4.30;;;;;;;6.43;100.00;97510.91;10413837;28;20266;-79
2022/10/11 17:11:51;;;;;;;16.80;3.90;;;;;;;6.22;100.00;97513.31;10452282;28;20265;-79
2022/10/11 17:16:51;;;;;;;15.60;3.83;;;;;;;6.01;100.00;97515.66;10434220;28;20555;-81
2022/10/11 17:21:52;;;;;;;11.00;5.43;;;;;;;5.89;100.00;97517.31;10450879;28;20235;-80
2022/10/11 17:26:53;;;;;;;11.13;3.27;;;;;;;5.86;100.00;97518.34;10451872;28;20267;-81
2022/10/11 17:31:54;;;;;;;13.77;4.13;;;;;;;5.66;100.00;97511.94;10433566;28;20219;-81
2022/10/11 17:36:54;;;;;;;13.40;5.07;;;;;;;5.58;100.00;97524.63;10433454;28;20688;-80
2022/10/11 17:41:55;;;;;;;14.13;5.70;;;;;;;5.43;100.00;97525.69;10431862;28;20188;-80
2022/10/11 17:46:55;;;;;;;8.80;4.07;;;;;;;5.28;100.00;97527.53;10432901;28;20188;-81
2022/10/11 17:51:55;;;;;;;11.10;3.90;;;;;;;5.27;100.00;97531.09;10449828;28;20863;-81
2022/10/11 17:56:56;;;;;;;18.07;5.87;;;;;;;5.16;100.00;97526.59;10449544;28;20223;-80
2022/10/11 18:01:57;;;;;;;11.30;4.47;;;;;;;5.09;100.00;97531.38;10432511;28;20247;-81
2022/10/11 18:06:57;;;;;;;14.17;4.27;;;;;;;4.96;100.00;97533.13;10432868;28;20606;-81
2022/10/11 18:11:57;;;;;;;12.73;3.83;;;;;;;4.89;100.00;97529.28;10449481;28;20192;-81
2022/10/11 18:16:58;;;;;;;13.30;3.30;;;;;;;4.95;100.00;97534.06;10449638;28;20191;-80
2022/10/11 18:28:34;;;;;;;14.77;4.20;;;;;;;4.91;100.00;97535.19;10401230;28;20244;-80
2022/10/11 18:33:35;;;;;;;12.73;3.97;;;;;;;4.91;100.00;97530.00;10392342;28;20748;-81
2022/10/11 18:38:36;;;;;;;13.37;4.67;;;;;;;4.72;100.00;97525.19;10410287;28;20224;-80
2022/10/11 18:43:37;;;;;;;11.60;3.30;;;;;;;4.68;100.00;97524.53;10409813;28;20197;-81
2022/10/11 18:48:42;;;;;;;14.70;3.57;;;;;;;4.63;100.00;97529.19;10392376;28;20212;-81
2022/10/11 18:53:43;;;;;;;12.20;3.10;;;;;;;4.49;100.00;97519.72;10408865;28;20212;-81
2022/10/11 18:58:44;;;;;;;11.07;3.20;;;;;;;4.48;100.00;97518.03;10408714;28;20184;-81
2022/10/11 19:03:46;;;;;;;6.23;2.77;;;;;;;4.54;100.00;97527.19;10409592;28;20557;-81
2022/10/11 19:09:10;;;;;;;16.37;3.43;;;;;;;4.43;100.00;97525.28;10408905;28;20220;-81
2022/10/11 19:14:13;;;;;;;8.70;2.33;;;;;;;4.41;100.00;97527.13;10404540;28;20747;-81
2022/10/11 19:19:14;;;;;;;12.70;2.87;;;;;;;4.36;100.00;97518.81;10419044;28;20181;-81
2022/10/11 19:24:20;;;;;;;11.17;2.73;;;;;;;4.27;100.00;97521.09;10426443;28;20564;-81
2022/10/11 19:29:23;;;;;;;11.83;2.93;;;;;;;4.21;100.00;97521.47;10427247;28;20944;-80
2022/10/11 19:34:30;;;;;;;9.50;2.70;;;;;;;4.18;100.00;97520.81;10434285;28;20180;-80
2022/10/11 19:39:30;;;;;;;7.87;2.87;;;;;;;4.09;100.00;97517.06;10425245;28;20231;-81
2022/10/11 19:44:31;;;;;;;8.07;2.67;;;;;;;4.04;100.00;97519.09;10447563;28;20196;-80
2022/10/11 19:49:31;;;;;;;7.57;2.67;;;;;;;4.04;100.00;97519.09;10443815;28;20224;-80
2022/10/11 19:54:32;;;;;;;11.67;2.93;;;;;;;3.96;100.00;97529.13;10458148;28;20187;-82
2022/10/11 19:59:32;;;;;;;10.10;2.60;;;;;;;3.92;100.00;97523.25;10431126;28;20231;-80
2022/10/11 20:04:32;;;;;;;12.23;2.90;;;;;;;3.84;100.00;97531.50;10410524;28;20184;-80
2022/10/11 20:09:33;;;;;;;12.37;3.10;;;;;;;3.71;100.00;97528.03;10416416;28;20282;-80
2022/10/11 20:14:33;;;;;;;11.50;3.17;;;;;;;3.68;100.00;97529.03;10417091;28;20188;-81
2022/10/11 20:19:33;;;;;;;11.83;3.17;;;;;;;3.63;100.00;97544.03;10417353;28;20794;-79
2022/10/11 20:24:34;;;;;;;12.43;2.87;;;;;;;3.52;100.00;97539.50;10416393;28;20213;-79
2022/10/11 20:29:34;;;;;;;12.87;2.90;;;;;;;3.57;100.00;97540.06;10416477;28;20220;-80
2022/10/11 20:34:38;;;;;;;9.00;2.70;;;;;;;3.48;100.00;97542.38;10415969;28;20200;-81
2022/10/11 20:39:38;;;;;;;9.73;2.97;;;;;;;3.42;100.00;97540.16;10416259;28;20232;-80
2022/10/11 20:44:39;;;;;;;7.47;2.73;;;;;;;3.42;100.00;97535.78;10415686;28;20192;-80
2022/10/11 20:49:39;;;;;;;13.07;2.80;;;;;;;3.34;100.00;97536.25;10415619;28;20280;-80
2022/10/11 20:54:40;;;;;;;12.40;2.73;;;;;;;3.30;100.00;97533.94;10415663;28;20204;-80
2022/10/11 20:59:41;;;;;;;11.57;2.60;;;;;;;3.22;100.00;97540.38;10415067;28;20189;-80
2022/10/11 21:04:41;;;;;;;8.63;2.47;;;;;;;3.25;100.00;97538.53;10397439;28;20188;-80
2022/10/11 21:09:42;;;;;;;6.80;2.73;;;;;;;3.20;100.00;97538.81;10416067;28;20223;-80
2022/10/11 21:14:43;;;;;;;5.83;2.63;;;;;;;3.15;100.00;97539.06;10414958;28;20196;-80
2022/10/11 21:19:43;;;;;;;9.30;2.07;;;;;;;3.18;100.00;97551.84;10413195;28;20192;-80
2022/10/11 21:24:44;;;;;;;2.10;1.23;;;;;;;3.16;100.00;97543.34;10414193;28;20211;-79
2022/10/11 21:29:44;;;;;;;5.93;2.10;;;;;;;3.20;100.00;97544.84;10413807;28;20262;-80
2022/10/11 21:34:44;;;;;;;7.27;2.37;;;;;;;3.18;100.00;97538.06;10396119;28;20192;-79
2022/10/11 21:39:45;;;;;;;6.87;1.70;;;;;;;3.17;100.00;97544.16;10413523;28;20599;-79
2022/10/11 21:44:45;;;;;;;10.03;2.70;;;;;;;3.00;100.00;97543.41;10414077;28;20192;-80
2022/10/11 21:49:45;;;;;;;7.93;1.73;;;;;;;3.03;100.00;97539.78;10413493;28;20262;-79
2022/10/11 21:54:47;;;;;;;4.70;1.70;;;;;;;3.08;100.00;97545.56;10413085;28;20597;-78
2022/10/11 21:59:48;;;;;;;6.83;2.20;;;;;;;3.04;100.00;97538.88;10394962;28;20243;-79
2022/10/11 22:04:48;;;;;;;10.73;2.53;;;;;;;2.96;100.00;97543.69;10413053;28;20192;-79
2022/10/11 22:09:49;;;;;;;6.60;1.93;;;;;;;2.93;100.00;97542.09;10412858;28;20189;-79
2022/10/11 22:14:49;;;;;;;5.23;2.17;;;;;;;2.93;100.00;97539.50;10412538;28;20199;-79
2022/10/11 22:19:50;;;;;;;6.57;2.07;;;;;;;2.95;100.00;97549.75;10412249;28;20224;-79
2022/10/11 22:24:50;;;;;;;13.00;2.50;;;;;;;3.00;100.00;97542.56;10394680;28;20181;-79
2022/10/11 22:29:50;;;;;;;19.20;2.30;;;;;;;2.99;100.00;97546.09;10411305;28;20217;-79
2022/10/11 22:34:51;;;;;;;11.20;2.03;;;;;;;3.02;100.00;97546.72;10411168;28;20607;-79
2022/10/11 22:39:51;;;;;;;12.03;2.10;;;;;;;3.06;100.00;97555.16;10411217;28;20239;-80
2022/10/11 22:44:51;;;;;;;8.30;1.90;;;;;;;3.17;100.00;97555.38;10411578;28;20196;-78
2022/10/11 22:49:52;;;;;;;3.77;1.53;;;;;;;3.26;100.00;97542.81;10393558;28;20189;-79
2022/10/11 22:54:52;;;;;;;10.77;2.43;;;;;;;3.35;100.00;97550.88;10411280;28;20663;-79
2022/10/11 22:59:53;;;;;;;8.93;2.40;;;;;;;3.44;100.00;97541.72;10411036;28;20239;-79
2022/10/11 23:04:53;;;;;;;8.07;2.33;;;;;;;3.68;100.00;97529.03;10410917;28;20269;-79
2022/10/11 23:09:53;;;;;;;4.70;1.90;;;;;;;3.70;100.00;97529.78;10393043;28;20196;-79
2022/10/11 23:14:54;;;;;;;8.43;1.67;;;;;;;3.80;100.00;97527.47;10393042;28;20197;-79
2022/10/11 23:19:54;;;;;;;12.83;2.67;;;;;;;3.83;100.00;97524.69;10410243;28;20220;-79
2022/10/11 23:24:54;;;;;;;11.77;1.97;;;;;;;3.83;100.00;97516.06;10410693;28;20254;-79
2022/10/11 23:29:55;;;;;;;6.47;1.70;;;;;;;3.74;100.00;97517.47;10392533;28;20728;-79
2022/10/11 23:34:55;;;;;;;6.00;1.73;;;;;;;3.72;100.00;97524.50;10409938;28;20207;-79
2022/10/11 23:39:56;;;;;;;9.67;1.90;;;;;;;3.65;100.00;97528.41;10411491;28;20216;-79